sensor_id;sensor_type;location;lat;lon;timestamp;pressure;altitude;pressure_sealevel;temperature;humidity
77247;BME280;66279;42.820;23.374;2024-01-27T00:02:20;96250.69;;;8.85;53.12
77247;BME280;66279;42.820;23.374;2024-01-27T00:04:46;96244.69;;;8.76;53.05
77247;BME280;66279;42.820;23.374;2024-01-27T00:07:14;96260.88;;;8.73;53.55
77247;BME280;66279;42.820;23.374;2024-01-27T00:09:39;96247.22;;;8.69;53.50
77247;BME280;66279;42.820;23.374;2024-01-27T00:12:06;96246.88;;;8.72;53.77
77247;BME280;66279;42.820;23.374;2024-01-27T00:14:32;96229.13;;;8.81;53.69
77247;BME280;66279;42.820;23.374;2024-01-27T00:16:57;96237.25;;;9.31;52.50
77247;BME280;66279;42.820;23.374;2024-01-27T00:19:23;96231.06;;;9.23;53.21
77247;BME280;66279;42.820;23.374;2024-01-27T00:21:48;96241.72;;;9.30;53.17
77247;BME280;66279;42.820;23.374;2024-01-27T00:24:14;96254.81;;;9.02;53.04
77247;BME280;66279;42.820;23.374;2024-01-27T00:26:39;96235.00;;;8.83;53.16
77247;BME280;66279;42.820;23.374;2024-01-27T00:29:05;96236.59;;;8.78;53.29
77247;BME280;66279;42.820;23.374;2024-01-27T00:31:30;96226.41;;;8.74;52.99
77247;BME280;66279;42.820;23.374;2024-01-27T00:33:56;96226.75;;;8.71;53.46
77247;BME280;66279;42.820;23.374;2024-01-27T00:36:21;96232.22;;;8.85;53.57
77247;BME280;66279;42.820;23.374;2024-01-27T00:38:47;96218.34;;;8.83;54.21
77247;BME280;66279;42.820;23.374;2024-01-27T00:41:16;96237.03;;;9.47;52.13
77247;BME280;66279;42.820;23.374;2024-01-27T00:43:42;96217.22;;;9.36;52.56
77247;BME280;66279;42.820;23.374;2024-01-27T00:46:07;96222.72;;;9.41;52.64
77247;BME280;66279;42.820;23.374;2024-01-27T00:48:33;96235.81;;;9.13;52.28
77247;BME280;66279;42.820;23.374;2024-01-27T00:50:58;96233.66;;;8.87;52.66
77247;BME280;66279;42.820;23.374;2024-01-27T00:53:23;96229.38;;;8.86;53.01
77247;BME280;66279;42.820;23.374;2024-01-27T00:55:49;96227.75;;;8.85;52.96
77247;BME280;66279;42.820;23.374;2024-01-27T00:58:16;96241.41;;;8.89;53.04
77247;BME280;66279;42.820;23.374;2024-01-27T01:00:41;96232.28;;;8.91;53.37
77247;BME280;66279;42.820;23.374;2024-01-27T01:03:06;96226.28;;;8.83;53.95
77247;BME280;66279;42.820;23.374;2024-01-27T01:05:32;96216.34;;;9.14;52.97
77247;BME280;66279;42.820;23.374;2024-01-27T01:07:57;96233.31;;;9.41;52.58
77247;BME280;66279;42.820;23.374;2024-01-27T01:10:23;96240.94;;;9.51;52.07
77247;BME280;66279;42.820;23.374;2024-01-27T01:12:48;96234.84;;;9.14;52.27
77247;BME280;66279;42.820;23.374;2024-01-27T01:15:13;96228.63;;;8.92;52.53
77247;BME280;66279;42.820;23.374;2024-01-27T01:17:39;96240.59;;;8.88;53.10
77247;BME280;66279;42.820;23.374;2024-01-27T01:20:05;96238.03;;;8.95;53.74
77247;BME280;66279;42.820;23.374;2024-01-27T01:22:31;96238.66;;;8.97;53.39
77247;BME280;66279;42.820;23.374;2024-01-27T01:24:56;96230.66;;;8.90;53.63
77247;BME280;66279;42.820;23.374;2024-01-27T01:27:22;96230.28;;;9.08;53.42
77247;BME280;66279;42.820;23.374;2024-01-27T01:29:47;96239.56;;;9.55;52.32
77247;BME280;66279;42.820;23.374;2024-01-27T01:32:12;96215.97;;;9.54;51.82
77247;BME280;66279;42.820;23.374;2024-01-27T01:34:38;96212.50;;;9.53;51.82
77247;BME280;66279;42.820;23.374;2024-01-27T01:37:04;96197.56;;;9.09;51.73
77247;BME280;66279;42.820;23.374;2024-01-27T01:39:29;96218.06;;;9.07;52.49
77247;BME280;66279;42.820;23.374;2024-01-27T01:41:54;96221.00;;;8.97;52.56
77247;BME280;66279;42.820;23.374;2024-01-27T01:44:20;96211.63;;;8.95;52.82
77247;BME280;66279;42.820;23.374;2024-01-27T01:46:47;96195.69;;;8.88;52.81
77247;BME280;66279;42.820;23.374;2024-01-27T01:49:12;96196.78;;;8.94;52.59
77247;BME280;66279;42.820;23.374;2024-01-27T01:51:38;96214.97;;;9.18;52.94
77247;BME280;66279;42.820;23.374;2024-01-27T01:54:04;96209.69;;;9.55;52.12
77247;BME280;66279;42.820;23.374;2024-01-27T01:56:30;96193.13;;;9.46;51.87
77247;BME280;66279;42.820;23.374;2024-01-27T01:58:55;96210.44;;;9.49;51.78
77247;BME280;66279;42.820;23.374;2024-01-27T02:01:21;96211.50;;;9.18;52.18
77247;BME280;66279;42.820;23.374;2024-01-27T02:03:57;96210.97;;;9.08;52.79
77247;BME280;66279;42.820;23.374;2024-01-27T02:06:22;96199.34;;;9.02;52.36
77247;BME280;66279;42.820;23.374;2024-01-27T02:08:48;96199.78;;;9.06;52.93
77247;BME280;66279;42.820;23.374;2024-01-27T02:11:13;96207.78;;;9.12;53.05
77247;BME280;66279;42.820;23.374;2024-01-27T02:13:39;96193.03;;;9.03;53.03
77247;BME280;66279;42.820;23.374;2024-01-27T02:16:05;96212.56;;;9.23;53.48
77247;BME280;66279;42.820;23.374;2024-01-27T02:18:30;96217.88;;;9.45;53.05
77247;BME280;66279;42.820;23.374;2024-01-27T02:20:56;96220.31;;;9.61;52.62
77247;BME280;66279;42.820;23.374;2024-01-27T02:23:21;96211.06;;;9.36;52.73
77247;BME280;66279;42.820;23.374;2024-01-27T02:25:46;96210.66;;;9.17;52.74
77247;BME280;66279;42.820;23.374;2024-01-27T02:28:12;96196.41;;;9.12;52.99
77247;BME280;66279;42.820;23.374;2024-01-27T02:30:38;96188.03;;;9.08;53.45
77247;BME280;66279;42.820;23.374;2024-01-27T02:33:04;96189.66;;;9.09;53.41
77247;BME280;66279;42.820;23.374;2024-01-27T02:35:30;96183.44;;;9.17;53.16
77247;BME280;66279;42.820;23.374;2024-01-27T02:37:55;96184.44;;;9.16;53.14
77247;BME280;66279;42.820;23.374;2024-01-27T02:40:21;96194.63;;;9.34;53.83
77247;BME280;66279;42.820;23.374;2024-01-27T02:42:46;96178.78;;;9.55;52.82
77247;BME280;66279;42.820;23.374;2024-01-27T02:45:11;96177.09;;;9.33;53.51
77247;BME280;66279;42.820;23.374;2024-01-27T02:47:37;96179.38;;;9.14;53.08
77247;BME280;66279;42.820;23.374;2024-01-27T02:50:03;96184.31;;;8.73;54.21
77247;BME280;66279;42.820;23.374;2024-01-27T02:52:31;96160.19;;;8.46;55.23
77247;BME280;66279;42.820;23.374;2024-01-27T02:54:57;96177.09;;;8.37;55.62
77247;BME280;66279;42.820;23.374;2024-01-27T02:57:22;96184.44;;;8.27;55.97
77247;BME280;66279;42.820;23.374;2024-01-27T02:59:48;96190.00;;;8.17;56.48
77247;BME280;66279;42.820;23.374;2024-01-27T03:02:15;96180.50;;;8.08;56.67
77247;BME280;66279;42.820;23.374;2024-01-27T03:04:43;96186.81;;;8.37;57.00
77247;BME280;66279;42.820;23.374;2024-01-27T03:07:09;96195.44;;;8.68;55.79
77247;BME280;66279;42.820;23.374;2024-01-27T03:09:35;96190.69;;;8.64;56.00
77247;BME280;66279;42.820;23.374;2024-01-27T03:12:00;96186.94;;;8.28;56.12
77247;BME280;66279;42.820;23.374;2024-01-27T03:14:26;96179.09;;;7.82;57.13
77247;BME280;66279;42.820;23.374;2024-01-27T03:16:52;96181.84;;;7.66;58.34
77247;BME280;66279;42.820;23.374;2024-01-27T03:19:17;96186.53;;;7.56;58.70
77247;BME280;66279;42.820;23.374;2024-01-27T03:21:42;96180.69;;;7.46;58.87
77247;BME280;66279;42.820;23.374;2024-01-27T03:24:08;96173.94;;;7.43;59.31
77247;BME280;66279;42.820;23.374;2024-01-27T03:26:33;96178.41;;;7.43;59.51
77247;BME280;66279;42.820;23.374;2024-01-27T03:28:59;96189.56;;;7.91;58.71
77247;BME280;66279;42.820;23.374;2024-01-27T03:31:30;96185.03;;;7.99;57.96
77247;BME280;66279;42.820;23.374;2024-01-27T03:33:58;96178.34;;;8.12;57.42
77247;BME280;66279;42.820;23.374;2024-01-27T03:36:23;96184.19;;;7.84;57.97
77247;BME280;66279;42.820;23.374;2024-01-27T03:38:49;96179.56;;;7.40;59.05
77247;BME280;66279;42.820;23.374;2024-01-27T03:41:14;96182.94;;;7.26;59.97
77247;BME280;66279;42.820;23.374;2024-01-27T03:43:40;96188.09;;;7.19;60.40
77247;BME280;66279;42.820;23.374;2024-01-27T03:46:05;96168.53;;;7.13;60.13
77247;BME280;66279;42.820;23.374;2024-01-27T03:48:31;96174.09;;;7.19;60.39
77247;BME280;66279;42.820;23.374;2024-01-27T03:50:56;96181.81;;;7.20;60.61
77247;BME280;66279;42.820;23.374;2024-01-27T03:53:22;96176.97;;;7.32;60.55
77247;BME280;66279;42.820;23.374;2024-01-27T03:55:47;96167.63;;;7.52;59.83
77247;BME280;66279;42.820;23.374;2024-01-27T03:58:13;96167.63;;;7.52;59.91
77247;BME280;66279;42.820;23.374;2024-01-27T04:00:38;96177.69;;;7.26;60.22
77247;BME280;66279;42.820;23.374;2024-01-27T04:03:04;96178.78;;;7.08;61.22
77247;BME280;66279;42.820;23.374;2024-01-27T04:05:30;96169.78;;;6.95;61.28
77247;BME280;66279;42.820;23.374;2024-01-27T04:07:56;96185.91;;;7.00;61.21
77247;BME280;66279;42.820;23.374;2024-01-27T04:10:22;96174.72;;;6.98;61.16
77247;BME280;66279;42.820;23.374;2024-01-27T04:12:48;96163.53;;;6.96;61.31
77247;BME280;66279;42.820;23.374;2024-01-27T04:15:13;96169.19;;;7.15;61.33
77247;BME280;66279;42.820;23.374;2024-01-27T04:17:39;96164.03;;;7.22;61.13
77247;BME280;66279;42.820;23.374;2024-01-27T04:20:06;96178.81;;;7.54;60.55
77247;BME280;66279;42.820;23.374;2024-01-27T04:22:32;96184.09;;;7.54;60.56
77247;BME280;66279;42.820;23.374;2024-01-27T04:24:58;96182.16;;;7.17;60.82
77247;BME280;66279;42.820;23.374;2024-01-27T04:27:23;96167.50;;;6.91;61.36
77247;BME280;66279;42.820;23.374;2024-01-27T04:29:49;96169.19;;;6.84;61.70
77247;BME280;66279;42.820;23.374;2024-01-27T04:32:14;96177.03;;;6.92;61.71
77247;BME280;66279;42.820;23.374;2024-01-27T04:34:40;96161.28;;;6.84;62.02
77247;BME280;66279;42.820;23.374;2024-01-27T04:37:05;96167.34;;;6.93;61.97
77247;BME280;66279;42.820;23.374;2024-01-27T04:39:31;96168.28;;;7.00;62.23
77247;BME280;66279;42.820;23.374;2024-01-27T04:41:56;96175.03;;;7.26;61.15
77247;BME280;66279;42.820;23.374;2024-01-27T04:44:22;96173.41;;;7.25;61.22
77247;BME280;66279;42.820;23.374;2024-01-27T04:46:48;96174.47;;;7.38;61.54
77247;BME280;66279;42.820;23.374;2024-01-27T04:49:14;96155.97;;;6.92;61.63
77247;BME280;66279;42.820;23.374;2024-01-27T04:51:40;96154.72;;;6.80;62.46
77247;BME280;66279;42.820;23.374;2024-01-27T04:54:05;96158.69;;;6.76;62.07
77247;BME280;66279;42.820;23.374;2024-01-27T04:56:31;96184.97;;;6.84;62.64
77247;BME280;66279;42.820;23.374;2024-01-27T04:58:56;96172.44;;;6.86;62.30
77247;BME280;66279;42.820;23.374;2024-01-27T05:01:22;96171.47;;;6.87;62.15
77247;BME280;66279;42.820;23.374;2024-01-27T05:03:47;96187.75;;;6.91;62.35
77247;BME280;66279;42.820;23.374;2024-01-27T05:06:12;96190.59;;;7.12;62.21
77247;BME280;66279;42.820;23.374;2024-01-27T05:08:38;96181.97;;;7.27;61.37
77247;BME280;66279;42.820;23.374;2024-01-27T05:11:04;96183.31;;;7.46;60.97
77247;BME280;66279;42.820;23.374;2024-01-27T05:13:29;96183.25;;;7.00;61.79
77247;BME280;66279;42.820;23.374;2024-01-27T05:15:55;96186.13;;;6.82;62.25
77247;BME280;66279;42.820;23.374;2024-01-27T05:18:21;96171.72;;;6.69;62.55
77247;BME280;66279;42.820;23.374;2024-01-27T05:20:46;96184.50;;;6.81;62.80
77247;BME280;66279;42.820;23.374;2024-01-27T05:23:12;96182.03;;;6.79;62.98
77247;BME280;66279;42.820;23.374;2024-01-27T05:25:38;96174.66;;;6.75;62.58
77247;BME280;66279;42.820;23.374;2024-01-27T05:28:04;96181.53;;;6.84;62.51
77247;BME280;66279;42.820;23.374;2024-01-27T05:30:30;96201.50;;;7.01;62.54
77247;BME280;66279;42.820;23.374;2024-01-27T05:32:55;96194.25;;;7.11;62.38
77247;BME280;66279;42.820;23.374;2024-01-27T05:35:21;96191.53;;;7.20;61.60
77247;BME280;66279;42.820;23.374;2024-01-27T05:37:46;96198.97;;;6.85;62.76
77247;BME280;66279;42.820;23.374;2024-01-27T05:40:12;96196.69;;;6.74;62.86
77247;BME280;66279;42.820;23.374;2024-01-27T05:42:37;96190.94;;;6.70;63.04
77247;BME280;66279;42.820;23.374;2024-01-27T05:45:06;96194.25;;;6.72;63.39
77247;BME280;66279;42.820;23.374;2024-01-27T05:47:32;96203.09;;;6.71;62.87
77247;BME280;66279;42.820;23.374;2024-01-27T05:49:57;96197.16;;;6.77;62.88
77247;BME280;66279;42.820;23.374;2024-01-27T05:52:23;96205.22;;;6.84;62.92
77247;BME280;66279;42.820;23.374;2024-01-27T05:54:50;96201.03;;;6.98;63.09
77247;BME280;66279;42.820;23.374;2024-01-27T05:57:16;96209.25;;;7.03;62.37
77247;BME280;66279;42.820;23.374;2024-01-27T05:59:41;96211.22;;;7.01;62.57
77247;BME280;66279;42.820;23.374;2024-01-27T06:02:07;96196.06;;;6.63;63.03
77247;BME280;66279;42.820;23.374;2024-01-27T06:04:32;96179.19;;;6.50;63.37
77247;BME280;66279;42.820;23.374;2024-01-27T06:06:58;96170.81;;;6.46;63.18
77247;BME280;66279;42.820;23.374;2024-01-27T06:09:24;96188.34;;;6.62;63.44
77247;BME280;66279;42.820;23.374;2024-01-27T06:11:49;96188.84;;;6.65;63.11
77247;BME280;66279;42.820;23.374;2024-01-27T06:14:15;96211.66;;;6.73;63.49
77247;BME280;66279;42.820;23.374;2024-01-27T06:16:40;96223.13;;;6.80;63.11
77247;BME280;66279;42.820;23.374;2024-01-27T06:19:05;96220.50;;;6.80;63.48
77247;BME280;66279;42.820;23.374;2024-01-27T06:21:31;96224.56;;;6.99;63.06
77247;BME280;66279;42.820;23.374;2024-01-27T06:23:56;96221.97;;;6.91;62.77
77247;BME280;66279;42.820;23.374;2024-01-27T06:26:22;96212.69;;;6.56;63.54
77247;BME280;66279;42.820;23.374;2024-01-27T06:28:47;96228.47;;;6.56;63.41
77247;BME280;66279;42.820;23.374;2024-01-27T06:31:12;96250.00;;;6.67;63.40
77247;BME280;66279;42.820;23.374;2024-01-27T06:33:40;96262.00;;;6.70;63.65
77247;BME280;66279;42.820;23.374;2024-01-27T06:36:05;96239.84;;;6.56;63.80
77247;BME280;66279;42.820;23.374;2024-01-27T06:38:31;96251.31;;;6.72;63.65
77247;BME280;66279;42.820;23.374;2024-01-27T06:40:57;96245.72;;;6.75;63.21
77247;BME280;66279;42.820;23.374;2024-01-27T06:43:22;96245.19;;;6.79;63.50
77247;BME280;66279;42.820;23.374;2024-01-27T06:45:49;96259.34;;;6.78;63.82
77247;BME280;66279;42.820;23.374;2024-01-27T06:48:14;96258.88;;;6.75;63.44
77247;BME280;66279;42.820;23.374;2024-01-27T06:50:40;96245.59;;;6.60;64.26
77247;BME280;66279;42.820;23.374;2024-01-27T06:53:05;96221.91;;;6.52;64.13
77247;BME280;66279;42.820;23.374;2024-01-27T06:55:30;96237.34;;;6.63;63.97
77247;BME280;66279;42.820;23.374;2024-01-27T06:57:56;96227.81;;;6.62;63.90
77247;BME280;66279;42.820;23.374;2024-01-27T07:00:22;96225.16;;;6.62;63.58
77247;BME280;66279;42.820;23.374;2024-01-27T07:02:48;96232.38;;;6.68;63.78
77247;BME280;66279;42.820;23.374;2024-01-27T07:05:13;96217.47;;;6.60;63.85
77247;BME280;66279;42.820;23.374;2024-01-27T07:07:39;96232.84;;;6.80;63.28
77247;BME280;66279;42.820;23.374;2024-01-27T07:10:06;96229.75;;;6.76;63.54
77247;BME280;66279;42.820;23.374;2024-01-27T07:12:33;96245.53;;;6.68;63.58
77247;BME280;66279;42.820;23.374;2024-01-27T07:14:58;96253.97;;;6.55;64.40
77247;BME280;66279;42.820;23.374;2024-01-27T07:17:26;96243.31;;;6.49;64.46
77247;BME280;66279;42.820;23.374;2024-01-27T07:19:51;96249.72;;;6.54;63.97
77247;BME280;66279;42.820;23.374;2024-01-27T07:22:17;96253.63;;;6.58;63.94
77247;BME280;66279;42.820;23.374;2024-01-27T07:24:42;96249.72;;;6.54;63.76
77247;BME280;66279;42.820;23.374;2024-01-27T07:27:11;96247.41;;;6.59;63.76
77247;BME280;66279;42.820;23.374;2024-01-27T07:29:39;96258.72;;;6.68;63.93
77247;BME280;66279;42.820;23.374;2024-01-27T07:32:05;96260.38;;;6.61;64.16
77247;BME280;66279;42.820;23.374;2024-01-27T07:34:33;96268.09;;;6.71;64.31
77247;BME280;66279;42.820;23.374;2024-01-27T07:36:58;96280.75;;;6.59;64.22
77247;BME280;66279;42.820;23.374;2024-01-27T07:39:24;96286.88;;;6.51;64.49
77247;BME280;66279;42.820;23.374;2024-01-27T07:41:49;96259.94;;;6.33;64.47
77247;BME280;66279;42.820;23.374;2024-01-27T07:44:15;96288.69;;;6.51;64.18
77247;BME280;66279;42.820;23.374;2024-01-27T07:46:41;96287.22;;;6.56;64.11
77247;BME280;66279;42.820;23.374;2024-01-27T07:49:08;96287.84;;;6.66;63.73
77247;BME280;66279;42.820;23.374;2024-01-27T07:51:34;96270.41;;;6.65;63.91
77247;BME280;66279;42.820;23.374;2024-01-27T07:54:05;96249.16;;;6.75;63.73
77247;BME280;66279;42.820;23.374;2024-01-27T07:56:31;96249.66;;;6.71;63.81
77247;BME280;66279;42.820;23.374;2024-01-27T07:58:56;96262.47;;;6.74;63.58
77247;BME280;66279;42.820;23.374;2024-01-27T08:01:22;96269.41;;;6.58;63.96
77247;BME280;66279;42.820;23.374;2024-01-27T08:03:47;96254.69;;;6.41;64.23
77247;BME280;66279;42.820;23.374;2024-01-27T08:06:17;96273.56;;;6.53;64.32
77247;BME280;66279;42.820;23.374;2024-01-27T08:08:45;96276.69;;;6.56;64.20
77247;BME280;66279;42.820;23.374;2024-01-27T08:11:11;96275.16;;;6.62;64.03
77247;BME280;66279;42.820;23.374;2024-01-27T08:13:37;96272.03;;;6.66;63.97
77247;BME280;66279;42.820;23.374;2024-01-27T08:16:02;96277.47;;;6.65;63.84
77247;BME280;66279;42.820;23.374;2024-01-27T08:18:29;96279.94;;;6.58;64.43
77247;BME280;66279;42.820;23.374;2024-01-27T08:20:54;96290.13;;;6.78;63.52
77247;BME280;66279;42.820;23.374;2024-01-27T08:23:20;96279.94;;;6.75;63.89
77247;BME280;66279;42.820;23.374;2024-01-27T08:25:45;96295.25;;;6.55;64.10
77247;BME280;66279;42.820;23.374;2024-01-27T08:28:12;96309.56;;;6.52;64.44
77247;BME280;66279;42.820;23.374;2024-01-27T08:30:38;96300.38;;;6.56;64.38
77247;BME280;66279;42.820;23.374;2024-01-27T08:33:03;96290.47;;;6.58;64.49
77247;BME280;66279;42.820;23.374;2024-01-27T08:35:30;96277.31;;;6.66;64.11
77247;BME280;66279;42.820;23.374;2024-01-27T08:37:55;96289.47;;;6.67;64.12
77247;BME280;66279;42.820;23.374;2024-01-27T08:40:21;96274.69;;;6.66;63.81
77247;BME280;66279;42.820;23.374;2024-01-27T08:42:51;96266.94;;;6.65;64.23
77247;BME280;66279;42.820;23.374;2024-01-27T08:45:17;96276.97;;;6.61;64.65
77247;BME280;66279;42.820;23.374;2024-01-27T08:47:42;96266.94;;;6.65;64.29
77247;BME280;66279;42.820;23.374;2024-01-27T08:50:09;96275.19;;;6.45;64.55
77247;BME280;66279;42.820;23.374;2024-01-27T08:52:36;96277.34;;;6.50;64.79
77247;BME280;66279;42.820;23.374;2024-01-27T08:55:04;96266.16;;;6.56;64.42
77247;BME280;66279;42.820;23.374;2024-01-27T08:57:29;96251.66;;;6.60;63.86
77247;BME280;66279;42.820;23.374;2024-01-27T08:59:55;96263.00;;;6.69;64.01
77247;BME280;66279;42.820;23.374;2024-01-27T09:02:20;96266.13;;;6.73;63.71
77247;BME280;66279;42.820;23.374;2024-01-27T09:04:46;96242.44;;;6.64;63.55
77247;BME280;66279;42.820;23.374;2024-01-27T09:07:12;96243.44;;;6.55;63.87
77247;BME280;66279;42.820;23.374;2024-01-27T09:09:37;96247.38;;;6.67;64.46
77247;BME280;66279;42.820;23.374;2024-01-27T09:12:06;96256.25;;;6.66;63.72
77247;BME280;66279;42.820;23.374;2024-01-27T09:14:32;96254.16;;;6.45;64.33
77247;BME280;66279;42.820;23.374;2024-01-27T09:16:59;96258.25;;;6.56;64.12
77247;BME280;66279;42.820;23.374;2024-01-27T09:19:24;96265.50;;;6.62;64.31
77247;BME280;66279;42.820;23.374;2024-01-27T09:21:50;96260.03;;;6.64;63.94
77247;BME280;66279;42.820;23.374;2024-01-27T09:24:15;96261.34;;;6.68;63.81
77247;BME280;66279;42.820;23.374;2024-01-27T09:26:41;96263.00;;;6.69;63.57
77247;BME280;66279;42.820;23.374;2024-01-27T09:29:06;96271.84;;;6.76;64.13
77247;BME280;66279;42.820;23.374;2024-01-27T09:31:32;96261.50;;;6.75;63.67
77247;BME280;66279;42.820;23.374;2024-01-27T09:33:57;96260.84;;;6.73;64.49
77247;BME280;66279;42.820;23.374;2024-01-27T09:36:23;96233.63;;;6.41;64.37
77247;BME280;66279;42.820;23.374;2024-01-27T09:38:48;96261.38;;;6.52;64.73
77247;BME280;66279;42.820;23.374;2024-01-27T09:41:14;96245.94;;;6.49;64.38
77247;BME280;66279;42.820;23.374;2024-01-27T09:43:44;96253.00;;;6.56;64.18
77247;BME280;66279;42.820;23.374;2024-01-27T09:46:17;96244.94;;;6.58;64.03
77247;BME280;66279;42.820;23.374;2024-01-27T09:48:43;96254.78;;;6.72;63.89
77247;BME280;66279;42.820;23.374;2024-01-27T09:51:09;96252.63;;;6.67;64.00
77247;BME280;66279;42.820;23.374;2024-01-27T09:53:38;96248.50;;;6.73;63.65
77247;BME280;66279;42.820;23.374;2024-01-27T09:56:03;96255.97;;;6.53;64.76
77247;BME280;66279;42.820;23.374;2024-01-27T09:58:30;96244.78;;;6.51;64.81
77247;BME280;66279;42.820;23.374;2024-01-27T10:00:57;96253.50;;;6.52;64.91
77247;BME280;66279;42.820;23.374;2024-01-27T10:03:25;96255.50;;;6.50;64.68
77247;BME280;66279;42.820;23.374;2024-01-27T10:05:52;96247.59;;;6.50;64.65
77247;BME280;66279;42.820;23.374;2024-01-27T10:08:18;96252.97;;;6.64;64.40
77247;BME280;66279;42.820;23.374;2024-01-27T10:10:43;96226.16;;;6.61;64.20
77247;BME280;66279;42.820;23.374;2024-01-27T10:13:10;96237.16;;;6.73;63.99
77247;BME280;66279;42.820;23.374;2024-01-27T10:15:38;96230.44;;;6.62;63.64
77247;BME280;66279;42.820;23.374;2024-01-27T10:18:07;96228.16;;;6.59;63.69
77247;BME280;66279;42.820;23.374;2024-01-27T10:20:33;96263.81;;;6.61;64.16
77247;BME280;66279;42.820;23.374;2024-01-27T10:23:09;96257.59;;;6.54;64.67
77247;BME280;66279;42.820;23.374;2024-01-27T10:25:39;96256.97;;;6.44;64.87
77247;BME280;66279;42.820;23.374;2024-01-27T10:28:06;96250.72;;;6.45;64.87
77247;BME280;66279;42.820;23.374;2024-01-27T10:30:32;96259.75;;;6.51;64.64
77247;BME280;66279;42.820;23.374;2024-01-27T10:32:58;96255.13;;;6.61;64.03
77247;BME280;66279;42.820;23.374;2024-01-27T10:35:23;96262.53;;;6.65;63.87
77247;BME280;66279;42.820;23.374;2024-01-27T10:37:52;96265.28;;;6.72;63.49
77247;BME280;66279;42.820;23.374;2024-01-27T10:40:19;96276.78;;;6.71;63.78
77247;BME280;66279;42.820;23.374;2024-01-27T10:42:45;96277.63;;;6.72;63.75
77247;BME280;66279;42.820;23.374;2024-01-27T10:45:11;96266.78;;;6.58;63.91
77247;BME280;66279;42.820;23.374;2024-01-27T10:47:38;96279.94;;;6.66;64.11
77247;BME280;66279;42.820;23.374;2024-01-27T10:50:08;96281.78;;;6.50;64.61
77247;BME280;66279;42.820;23.374;2024-01-27T10:52:38;96294.94;;;6.50;64.62
77247;BME280;66279;42.820;23.374;2024-01-27T10:55:04;96296.53;;;6.59;64.33
77247;BME280;66279;42.820;23.374;2024-01-27T10:57:36;96305.78;;;6.63;64.31
77247;BME280;66279;42.820;23.374;2024-01-27T11:00:04;96312.19;;;6.68;63.77
77247;BME280;66279;42.820;23.374;2024-01-27T11:02:35;96299.66;;;6.71;63.67
77247;BME280;66279;42.820;23.374;2024-01-27T11:05:04;96309.03;;;6.73;63.70
77247;BME280;66279;42.820;23.374;2024-01-27T11:07:34;96307.22;;;6.74;63.77
77247;BME280;66279;42.820;23.374;2024-01-27T11:10:00;96306.75;;;6.70;63.57
77247;BME280;66279;42.820;23.374;2024-01-27T11:12:26;96313.81;;;6.69;63.48
77247;BME280;66279;42.820;23.374;2024-01-27T11:14:52;96300.69;;;6.45;64.36
77247;BME280;66279;42.820;23.374;2024-01-27T11:17:24;96319.75;;;6.55;63.97
77247;BME280;66279;42.820;23.374;2024-01-27T11:19:50;96317.44;;;6.60;63.79
77247;BME280;66279;42.820;23.374;2024-01-27T11:22:42;96302.31;;;6.62;63.65
77247;BME280;66279;42.820;23.374;2024-01-27T11:27:37;96317.94;;;6.64;63.98
77247;BME280;66279;42.820;23.374;2024-01-27T11:30:03;96309.22;;;6.63;63.92
77247;BME280;66279;42.820;23.374;2024-01-27T11:32:30;96296.41;;;6.52;64.14
77247;BME280;66279;42.820;23.374;2024-01-27T11:34:55;96320.72;;;6.71;64.02
77247;BME280;66279;42.820;23.374;2024-01-27T11:37:21;96324.38;;;6.53;64.15
77247;BME280;66279;42.820;23.374;2024-01-27T11:39:49;96318.44;;;6.51;64.58
77247;BME280;66279;42.820;23.374;2024-01-27T11:42:16;96308.09;;;6.50;64.06
77247;BME280;66279;42.820;23.374;2024-01-27T11:44:43;96319.91;;;6.62;64.05
77247;BME280;66279;42.820;23.374;2024-01-27T11:47:17;96320.22;;;6.67;63.83
77247;BME280;66279;42.820;23.374;2024-01-27T11:49:54;96331.09;;;6.72;63.58
77247;BME280;66279;42.820;23.374;2024-01-27T11:52:21;96317.25;;;6.70;63.63
77247;BME280;66279;42.820;23.374;2024-01-27T11:54:59;96313.16;;;6.76;63.73
77247;BME280;66279;42.820;23.374;2024-01-27T11:57:26;96325.16;;;6.70;63.59
77247;BME280;66279;42.820;23.374;2024-01-27T11:59:53;96331.78;;;6.41;62.46
77247;BME280;66279;42.820;23.374;2024-01-27T12:02:19;96340.31;;;6.27;62.77
77247;BME280;66279;42.820;23.374;2024-01-27T12:04:44;96331.75;;;6.33;63.16
77247;BME280;66279;42.820;23.374;2024-01-27T12:07:14;96332.78;;;6.40;63.10
77247;BME280;66279;42.820;23.374;2024-01-27T12:09:39;96329.47;;;6.47;63.06
77247;BME280;66279;42.820;23.374;2024-01-27T12:12:05;96321.06;;;6.43;62.86
77247;BME280;66279;42.820;23.374;2024-01-27T12:14:41;96335.38;;;6.57;62.55
77247;BME280;66279;42.820;23.374;2024-01-27T12:17:09;96335.72;;;6.54;62.96
77247;BME280;66279;42.820;23.374;2024-01-27T12:19:35;96352.13;;;6.56;62.69
77247;BME280;66279;42.820;23.374;2024-01-27T12:22:05;96344.94;;;6.50;63.22
77247;BME280;66279;42.820;23.374;2024-01-27T12:24:30;96342.47;;;6.32;63.50
77247;BME280;66279;42.820;23.374;2024-01-27T12:26:57;96344.44;;;6.30;64.03
77247;BME280;66279;42.820;23.374;2024-01-27T12:29:24;96347.88;;;6.38;63.82
77247;BME280;66279;42.820;23.374;2024-01-27T12:31:49;96353.78;;;6.49;63.43
77247;BME280;66279;42.820;23.374;2024-01-27T12:34:15;96362.16;;;6.52;62.91
77247;BME280;66279;42.820;23.374;2024-01-27T12:36:42;96369.59;;;6.57;62.79
77247;BME280;66279;42.820;23.374;2024-01-27T12:39:08;96363.31;;;6.58;62.57
77247;BME280;66279;42.820;23.374;2024-01-27T12:41:34;96374.00;;;6.64;62.56
77247;BME280;66279;42.820;23.374;2024-01-27T12:44:00;96382.56;;;6.58;62.49
77247;BME280;66279;42.820;23.374;2024-01-27T12:46:26;96387.66;;;6.52;63.53
77247;BME280;66279;42.820;23.374;2024-01-27T12:48:52;96386.00;;;6.42;63.58
77247;BME280;66279;42.820;23.374;2024-01-27T12:51:18;96375.66;;;6.33;63.55
77247;BME280;66279;42.820;23.374;2024-01-27T12:53:44;96394.72;;;6.43;63.41
77247;BME280;66279;42.820;23.374;2024-01-27T12:56:10;96393.59;;;6.54;63.55
77247;BME280;66279;42.820;23.374;2024-01-27T12:58:36;96390.44;;;6.58;63.05